CMA CGM Opal — A8RV3 — position and weather

sailwx.info

Track history (hours):
 
Tides and Currents Weather Stations Pressure Air Temp Water Temp Dewpoint Dewpoint Depression Visibility Wind Speed Wind Dir Waves Ship Positions

CMA CGM Opal

Last reported at 2018-May-16 16:32 UTC. Time now 2018-May-23 15:02 UTC.
Position N 01°23' E 103°13'.

Length 258 m; draft 12.3 m.

Type: Ship (hazmat cat C). MMSI: 636014168.

Date/timePositionNaut miles runAvg speedWind from/ knotsBaromVisibWave heightAir tempDewpointWater temp
2018-May-16 16:32N 01°23' E 103°13'216.3
2018-May-16 16:24N 01°22' E 103°15'715.9
2018-May-16 15:59N 01°18' E 103°20'815.9
2018-May-16 15:30N 01°13' E 103°26'815.0
2018-May-16 15:00N 01°12' E 103°33'510.3
2018-May-16 14:30N 01°12' E 103°39'611.0
2018-May-16 14:00N 01°15' E 103°43'3 6.7
2018-May-16 13:30N 01°17' E 103°46'0 0.3
2018-May-16 12:58N 01°17' E 103°46'0 0.0
2018-May-16 12:29N 01°17' E 103°46'0 0.0
2018-May-16 11:59N 01°17' E 103°46'0 0.0
2018-May-16 11:25N 01°17' E 103°46'0 0.0
2018-May-16 10:59N 01°17' E 103°46'0 0.0
2018-May-16 10:28N 01°17' E 103°46'0 0.0
2018-May-16 09:58N 01°17' E 103°46'0 0.0
2018-May-16 09:28N 01°17' E 103°46'0 0.0
2018-May-16 08:59N 01°17' E 103°46'0 0.0
2018-May-16 08:29N 01°17' E 103°46'0 0.0
2018-May-16 07:56N 01°17' E 103°46'0 0.0
2018-May-16 07:29N 01°17' E 103°46'0 0.0
2018-May-16 06:58N 01°17' E 103°46'0 0.0
2018-May-16 06:28N 01°17' E 103°46'0 0.0
2018-May-16 05:56N 01°17' E 103°46'0 0.0
2018-May-16 05:29N 01°17' E 103°46'0 0.0
2018-May-16 04:58N 01°17' E 103°46'0 0.0
2018-May-16 04:29N 01°17' E 103°46'0 0.0
2018-May-16 03:58N 01°17' E 103°46'0 0.0
2018-May-16 03:28N 01°17' E 103°46'0 0.0
2018-May-16 02:58N 01°17' E 103°46'0 0.0
2018-May-16 02:28N 01°17' E 103°46'0 0.0
2018-May-16 01:59N 01°17' E 103°46'0 0.0
2018-May-16 01:28N 01°17' E 103°46'0 0.0
2018-May-16 00:58N 01°17' E 103°46'0 0.0
2018-May-16 00:28N 01°17' E 103°46'0 0.0
2018-May-15 23:58N 01°17' E 103°46'0 0.0
2018-May-15 23:29N 01°17' E 103°46'0 0.0
2018-May-15 22:58N 01°17' E 103°46'0 0.0
2018-May-15 22:29N 01°17' E 103°46'0 0.0
2018-May-15 21:59N 01°17' E 103°46'0 0.0
2018-May-15 21:30N 01°17' E 103°46'1 1.9
2018-May-15 21:00N 01°17' E 103°45'3 5.5
2018-May-15 20:30N 01°15' E 103°44'4 6.8
2018-May-15 19:59N 01°13' E 103°41'0 0.1
2018-May-15 19:29N 01°13' E 103°41'0 0.0
2018-May-15 18:59N 01°13' E 103°41'0 0.0
2018-May-15 18:29N 01°13' E 103°41'0 0.0
2018-May-15 17:59N 01°13' E 103°41'0 0.0
2018-May-15 17:29N 01°13' E 103°41'0 0.1
2018-May-15 16:58N 01°12' E 103°41'0 0.1
2018-May-15 16:28N 01°12' E 103°41'0 0.1
2018-May-15 15:58N 01°12' E 103°41'0 0.1
2018-May-15 15:28N 01°12' E 103°41'0 0.3
2018-May-15 14:58N 01°12' E 103°41'0 0.1
2018-May-15 14:25N 01°12' E 103°41'0 0.0
2018-May-15 13:58N 01°12' E 103°41'0 0.0
2018-May-15 13:28N 01°12' E 103°41'0 0.0
2018-May-15 12:59N 01°12' E 103°41'0 0.0
2018-May-15 12:28N 01°12' E 103°41'0 0.0
2018-May-15 11:58N 01°12' E 103°41'0 0.1
2018-May-15 11:29N 01°12' E 103°41'3 5.2
2018-May-15 11:00N 01°12' E 103°39'3 6.5
2018-May-15 10:31N 01°13' E 103°36'510.3
2018-May-15 10:00N 01°11' E 103°30'1 1.1
2018-May-15 09:29N 01°11' E 103°31'1 1.5
2018-May-15 09:00N 01°11' E 103°31'1 1.6
2018-May-15 08:30N 01°11' E 103°31'2 3.6
2018-May-15 07:58N 01°12' E 103°29'1 1.5
2018-May-15 07:26N 01°11' E 103°30'1 1.2
2018-May-15 06:59N 01°11' E 103°30'0 0.9
2018-May-15 06:30N 01°11' E 103°30'2 4.1
2018-May-15 06:00N 01°12' E 103°32'2 4.7
2018-May-15 05:30N 01°15' E 103°32'3 6.5
2018-May-15 05:00N 01°18' E 103°33'4 8.4
2018-May-15 04:30N 01°22' E 103°33'0 0.2
2018-May-15 03:59N 01°22' E 103°33'0 0.0
2018-May-15 03:28N 01°22' E 103°33'0 0.0
2018-May-15 02:59N 01°22' E 103°33'0 0.0
2018-May-15 02:28N 01°22' E 103°33'0 0.0
2018-May-15 01:58N 01°22' E 103°33'0 0.0
2018-May-15 01:28N 01°22' E 103°33'0 0.0
2018-May-15 00:58N 01°22' E 103°33'0 0.0
2018-May-15 00:28N 01°22' E 103°33'0 0.0
2018-May-14 23:58N 01°22' E 103°33'0 0.0
2018-May-14 23:25N 01°22' E 103°33'0 0.0
2018-May-14 22:58N 01°22' E 103°33'0 0.0
2018-May-14 22:29N 01°22' E 103°33'0 0.0
2018-May-14 21:56N 01°22' E 103°33'0 0.0
2018-May-14 21:28N 01°22' E 103°33'0 0.0
2018-May-14 20:58N 01°22' E 103°33'0 0.0
2018-May-14 20:25N 01°22' E 103°33'0 0.0
2018-May-14 19:58N 01°22' E 103°33'0 0.0
2018-May-14 19:28N 01°22' E 103°33'0 0.0
2018-May-14 18:59N 01°22' E 103°33'0 0.0
2018-May-14 18:28N 01°22' E 103°33'0 0.0
2018-May-14 17:58N 01°22' E 103°33'0 0.0
2018-May-14 17:28N 01°22' E 103°33'0 0.0
2018-May-14 16:58N 01°22' E 103°33'0 0.0
2018-May-14 16:28N 01°22' E 103°33'0 0.0
2018-May-14 15:58N 01°22' E 103°33'0 0.0
2018-May-14 15:28N 01°22' E 103°33'0 0.0
2018-May-14 14:59N 01°22' E 103°33'0 0.0
2018-May-14 14:28N 01°22' E 103°33'0 0.0
2018-May-14 13:55N 01°22' E 103°33'0 0.0
2018-May-14 13:23N 01°22' E 103°33'0 0.0
2018-May-14 12:58N 01°22' E 103°33'0 0.0
2018-May-14 12:28N 01°22' E 103°33'0 0.0
2018-May-14 11:52N 01°22' E 103°33'0 0.0
2018-May-14 11:28N 01°22' E 103°33'0 0.0
2018-May-14 10:58N 01°22' E 103°33'0 0.0
2018-May-14 10:25N 01°22' E 103°33'0 0.0
2018-May-14 09:58N 01°22' E 103°33'0 0.0
2018-May-14 09:25N 01°22' E 103°33'0 0.0
2018-May-14 08:53N 01°22' E 103°33'0 0.0
2018-May-14 08:28N 01°22' E 103°33'0 0.1
2018-May-14 07:59N 01°22' E 103°33'1 1.7
2018-May-14 07:30N 01°21' E 103°33'2 4.7
2018-May-14 07:00N 01°19' E 103°33'4 9.2
2018-May-14 06:30N 01°14' E 103°32'3 6.5
2018-May-14 05:59N 01°12' E 103°30'1 1.1
2018-May-14 05:30N 01°12' E 103°30'0 0.5
2018-May-14 04:59N 01°11' E 103°30'0 1.0
2018-May-14 04:30N 01°12' E 103°31'0 0.4
2018-May-14 03:59N 01°11' E 103°31'0 0.4
2018-May-14 03:27N 01°11' E 103°31'0 0.4
2018-May-14 03:00N 01°11' E 103°31'3 6.0
2018-May-14 02:30N 01°11' E 103°34'510.1
2018-May-14 02:00N 01°11' E 103°39'510.7
2018-May-14 01:31N 01°08' E 103°43'510.8
2018-May-14 01:00N 01°11' E 103°48'611.4
2018-May-14 00:30N 01°13' E 103°54'611.0
2018-May-14 00:00N 01°15' E 103°59'611.6
2018-May-13 23:30N 01°16' E 104°04'611.9
2018-May-13 22:59N 01°17' E 104°10'612.1
2018-May-13 22:30N 01°18' E 104°16'611.1
2018-May-13 21:59N 01°20' E 104°21'511.4
2018-May-13 21:31N 01°24' E 104°26'611.7
2018-May-13 21:00N 01°28' E 104°30'611.2
2018-May-13 20:27N 01°32' E 104°35'  
2018-May-07 13:14N 23°11' E 117°44'518.0
2018-May-07 12:58N 23°13' E 117°48'918.0
2018-May-07 12:28N 23°19' E 117°56'817.9
2018-May-07 12:00N 23°24' E 118°03'917.4
2018-May-07 11:29N 23°31' E 118°10'917.4
2018-May-07 10:58N 23°36' E 118°17'817.7
2018-May-07 10:30N 23°42' E 118°24'918.1
2018-May-07 10:00N 23°47' E 118°32'1019.1
2018-May-07 09:30N 23°54' E 118°40'1019.4
2018-May-07 09:00N 24°01' E 118°47'1019.1
2018-May-07 08:28N 24°07' E 118°56'5518.8
2018-May-07 05:33N 24°44' E 119°40'  
Track history (hours):
 
Tides and Currents Weather Stations Pressure Air Temp Water Temp Dewpoint Dewpoint Depression Visibility Wind Speed Wind Dir Waves Ship Positions

CMA CGM Opal

Last reported at 2018-May-16 16:32 UTC. Time now 2018-May-23 15:02 UTC.
Position N 01°23' E 103°13'.

Length 258 m; draft 12.3 m.

Type: Ship (hazmat cat C). MMSI: 636014168.

Date/timePositionNaut miles runAvg speedWind from/ knotsBaromVisibWave heightAir tempDewpointWater temp
2018-May-16 16:32N 01°23' E 103°13'216.3
2018-May-16 16:24N 01°22' E 103°15'715.9
2018-May-16 15:59N 01°18' E 103°20'815.9
2018-May-16 15:30N 01°13' E 103°26'815.0
2018-May-16 15:00N 01°12' E 103°33'510.3
2018-May-16 14:30N 01°12' E 103°39'611.0
2018-May-16 14:00N 01°15' E 103°43'3 6.7
2018-May-16 13:30N 01°17' E 103°46'0 0.3
2018-May-16 12:58N 01°17' E 103°46'0 0.0
2018-May-16 12:29N 01°17' E 103°46'0 0.0
2018-May-16 11:59N 01°17' E 103°46'0 0.0
2018-May-16 11:25N 01°17' E 103°46'0 0.0
2018-May-16 10:59N 01°17' E 103°46'0 0.0
2018-May-16 10:28N 01°17' E 103°46'0 0.0
2018-May-16 09:58N 01°17' E 103°46'0 0.0
2018-May-16 09:28N 01°17' E 103°46'0 0.0
2018-May-16 08:59N 01°17' E 103°46'0 0.0
2018-May-16 08:29N 01°17' E 103°46'0 0.0
2018-May-16 07:56N 01°17' E 103°46'0 0.0
2018-May-16 07:29N 01°17' E 103°46'0 0.0
2018-May-16 06:58N 01°17' E 103°46'0 0.0
2018-May-16 06:28N 01°17' E 103°46'0 0.0
2018-May-16 05:56N 01°17' E 103°46'0 0.0
2018-May-16 05:29N 01°17' E 103°46'0 0.0
2018-May-16 04:58N 01°17' E 103°46'0 0.0
2018-May-16 04:29N 01°17' E 103°46'0 0.0
2018-May-16 03:58N 01°17' E 103°46'0 0.0
2018-May-16 03:28N 01°17' E 103°46'0 0.0
2018-May-16 02:58N 01°17' E 103°46'0 0.0
2018-May-16 02:28N 01°17' E 103°46'0 0.0
2018-May-16 01:59N 01°17' E 103°46'0 0.0
2018-May-16 01:28N 01°17' E 103°46'0 0.0
2018-May-16 00:58N 01°17' E 103°46'0 0.0
2018-May-16 00:28N 01°17' E 103°46'0 0.0
2018-May-15 23:58N 01°17' E 103°46'0 0.0
2018-May-15 23:29N 01°17' E 103°46'0 0.0
2018-May-15 22:58N 01°17' E 103°46'0 0.0
2018-May-15 22:29N 01°17' E 103°46'0 0.0
2018-May-15 21:59N 01°17' E 103°46'0 0.0
2018-May-15 21:30N 01°17' E 103°46'1 1.9
2018-May-15 21:00N 01°17' E 103°45'3 5.5
2018-May-15 20:30N 01°15' E 103°44'4 6.8
2018-May-15 19:59N 01°13' E 103°41'0 0.1
2018-May-15 19:29N 01°13' E 103°41'0 0.0
2018-May-15 18:59N 01°13' E 103°41'0 0.0
2018-May-15 18:29N 01°13' E 103°41'0 0.0
2018-May-15 17:59N 01°13' E 103°41'0 0.0
2018-May-15 17:29N 01°13' E 103°41'0 0.1
2018-May-15 16:58N 01°12' E 103°41'0 0.1
2018-May-15 16:28N 01°12' E 103°41'0 0.1
2018-May-15 15:58N 01°12' E 103°41'0 0.1
2018-May-15 15:28N 01°12' E 103°41'0 0.3
2018-May-15 14:58N 01°12' E 103°41'0 0.1
2018-May-15 14:25N 01°12' E 103°41'0 0.0
2018-May-15 13:58N 01°12' E 103°41'0 0.0
2018-May-15 13:28N 01°12' E 103°41'0 0.0
2018-May-15 12:59N 01°12' E 103°41'0 0.0
2018-May-15 12:28N 01°12' E 103°41'0 0.0
2018-May-15 11:58N 01°12' E 103°41'0 0.1
2018-May-15 11:29N 01°12' E 103°41'3 5.2
2018-May-15 11:00N 01°12' E 103°39'3 6.5
2018-May-15 10:31N 01°13' E 103°36'510.3
2018-May-15 10:00N 01°11' E 103°30'1 1.1
2018-May-15 09:29N 01°11' E 103°31'1 1.5
2018-May-15 09:00N 01°11' E 103°31'1 1.6
2018-May-15 08:30N 01°11' E 103°31'2 3.6
2018-May-15 07:58N 01°12' E 103°29'1 1.5
2018-May-15 07:26N 01°11' E 103°30'1 1.2
2018-May-15 06:59N 01°11' E 103°30'0 0.9
2018-May-15 06:30N 01°11' E 103°30'2 4.1
2018-May-15 06:00N 01°12' E 103°32'2 4.7
2018-May-15 05:30N 01°15' E 103°32'3 6.5
2018-May-15 05:00N 01°18' E 103°33'4 8.4
2018-May-15 04:30N 01°22' E 103°33'0 0.2
2018-May-15 03:59N 01°22' E 103°33'0 0.0
2018-May-15 03:28N 01°22' E 103°33'0 0.0
2018-May-15 02:59N 01°22' E 103°33'0 0.0
2018-May-15 02:28N 01°22' E 103°33'0 0.0
2018-May-15 01:58N 01°22' E 103°33'0 0.0
2018-May-15 01:28N 01°22' E 103°33'0 0.0
2018-May-15 00:58N 01°22' E 103°33'0 0.0
2018-May-15 00:28N 01°22' E 103°33'0 0.0
2018-May-14 23:58N 01°22' E 103°33'0 0.0
2018-May-14 23:25N 01°22' E 103°33'0 0.0
2018-May-14 22:58N 01°22' E 103°33'0 0.0
2018-May-14 22:29N 01°22' E 103°33'0 0.0
2018-May-14 21:56N 01°22' E 103°33'0 0.0
2018-May-14 21:28N 01°22' E 103°33'0 0.0
2018-May-14 20:58N 01°22' E 103°33'0 0.0
2018-May-14 20:25N 01°22' E 103°33'0 0.0
2018-May-14 19:58N 01°22' E 103°33'0 0.0
2018-May-14 19:28N 01°22' E 103°33'0 0.0
2018-May-14 18:59N 01°22' E 103°33'0 0.0
2018-May-14 18:28N 01°22' E 103°33'0 0.0
2018-May-14 17:58N 01°22' E 103°33'0 0.0
2018-May-14 17:28N 01°22' E 103°33'0 0.0
2018-May-14 16:58N 01°22' E 103°33'0 0.0
2018-May-14 16:28N 01°22' E 103°33'0 0.0
2018-May-14 15:58N 01°22' E 103°33'0 0.0
2018-May-14 15:28N 01°22' E 103°33'0 0.0
2018-May-14 14:59N 01°22' E 103°33'0 0.0
2018-May-14 14:28N 01°22' E 103°33'0 0.0
2018-May-14 13:55N 01°22' E 103°33'0 0.0
2018-May-14 13:23N 01°22' E 103°33'0 0.0
2018-May-14 12:58N 01°22' E 103°33'0 0.0
2018-May-14 12:28N 01°22' E 103°33'0 0.0
2018-May-14 11:52N 01°22' E 103°33'0 0.0
2018-May-14 11:28N 01°22' E 103°33'0 0.0
2018-May-14 10:58N 01°22' E 103°33'0 0.0
2018-May-14 10:25N 01°22' E 103°33'0 0.0
2018-May-14 09:58N 01°22' E 103°33'0 0.0
2018-May-14 09:25N 01°22' E 103°33'0 0.0
2018-May-14 08:53N 01°22' E 103°33'0 0.0
2018-May-14 08:28N 01°22' E 103°33'0 0.1
2018-May-14 07:59N 01°22' E 103°33'1 1.7
2018-May-14 07:30N 01°21' E 103°33'2 4.7
2018-May-14 07:00N 01°19' E 103°33'4 9.2
2018-May-14 06:30N 01°14' E 103°32'3 6.5
2018-May-14 05:59N 01°12' E 103°30'1 1.1
2018-May-14 05:30N 01°12' E 103°30'0 0.5
2018-May-14 04:59N 01°11' E 103°30'0 1.0
2018-May-14 04:30N 01°12' E 103°31'0 0.4
2018-May-14 03:59N 01°11' E 103°31'0 0.4
2018-May-14 03:27N 01°11' E 103°31'0 0.4
2018-May-14 03:00N 01°11' E 103°31'3 6.0
2018-May-14 02:30N 01°11' E 103°34'510.1
2018-May-14 02:00N 01°11' E 103°39'510.7
2018-May-14 01:31N 01°08' E 103°43'510.8
2018-May-14 01:00N 01°11' E 103°48'611.4
2018-May-14 00:30N 01°13' E 103°54'611.0
2018-May-14 00:00N 01°15' E 103°59'611.6
2018-May-13 23:30N 01°16' E 104°04'611.9
2018-May-13 22:59N 01°17' E 104°10'612.1
2018-May-13 22:30N 01°18' E 104°16'611.1
2018-May-13 21:59N 01°20' E 104°21'511.4
2018-May-13 21:31N 01°24' E 104°26'611.7
2018-May-13 21:00N 01°28' E 104°30'611.2
2018-May-13 20:27N 01°32' E 104°35'  
2018-May-07 13:14N 23°11' E 117°44'518.0
2018-May-07 12:58N 23°13' E 117°48'918.0
2018-May-07 12:28N 23°19' E 117°56'817.9
2018-May-07 12:00N 23°24' E 118°03'917.4
2018-May-07 11:29N 23°31' E 118°10'917.4
2018-May-07 10:58N 23°36' E 118°17'817.7
2018-May-07 10:30N 23°42' E 118°24'918.1
2018-May-07 10:00N 23°47' E 118°32'1019.1
2018-May-07 09:30N 23°54' E 118°40'1019.4
2018-May-07 09:00N 24°01' E 118°47'1019.1
2018-May-07 08:28N 24°07' E 118°56'5518.8
2018-May-07 05:33N 24°44' E 119°40'  

Dump ship's entire track history